createdAt,value
2018-05-18T00:00:17.553Z,30.40
2018-05-18T00:02:45.016Z,34.83
2018-05-18T00:05:12.473Z,38.30
2018-05-18T00:07:39.928Z,32.43
2018-05-18T00:10:07.392Z,35.00
2018-05-18T00:12:34.843Z,36.50
2018-05-18T00:15:02.314Z,29.67
2018-05-18T00:17:29.757Z,30.23
2018-05-18T00:19:57.206Z,30.00
2018-05-18T00:22:25.717Z,30.87
2018-05-18T00:24:53.165Z,27.77
2018-05-18T00:27:20.605Z,31.37
2018-05-18T00:29:49.605Z,32.50
2018-05-18T00:32:17.872Z,29.77
2018-05-18T00:34:45.326Z,25.73
2018-05-18T00:37:12.772Z,26.60
2018-05-18T00:39:40.225Z,18.83
2018-05-18T00:42:07.683Z,27.07
2018-05-18T00:44:35.163Z,30.97
2018-05-18T00:47:02.926Z,31.50
2018-05-18T00:49:30.388Z,29.80
2018-05-18T00:51:57.828Z,32.60
2018-05-18T00:54:25.454Z,33.27
2018-05-18T00:56:52.897Z,32.03
2018-05-18T00:59:21.115Z,32.20
2018-05-18T01:01:48.597Z,29.40
2018-05-18T01:04:16.043Z,30.47
2018-05-18T01:06:43.504Z,35.17
2018-05-18T01:09:10.953Z,36.93
2018-05-18T01:11:38.417Z,40.43
2018-05-18T01:14:05.871Z,38.13
2018-05-18T01:16:33.319Z,38.60
2018-05-18T01:19:00.776Z,40.23
2018-05-18T01:21:28.226Z,42.93
2018-05-18T01:23:56.448Z,38.23
2018-05-18T01:26:23.900Z,48.33
2018-05-18T01:28:51.356Z,48.23
2018-05-18T01:31:18.810Z,45.13
2018-05-18T01:33:46.284Z,50.53
2018-05-18T01:36:13.780Z,45.93
2018-05-18T01:38:41.641Z,40.23
2018-05-18T01:41:09.105Z,43.50
2018-05-18T01:43:36.552Z,41.10
2018-05-18T01:46:04.021Z,39.80
2018-05-18T01:48:31.546Z,40.87
2018-05-18T01:50:58.954Z,47.63
2018-05-18T01:53:26.430Z,50.53
2018-05-18T01:55:53.889Z,47.10
2018-05-18T01:58:21.325Z,40.13
2018-05-18T02:00:48.777Z,34.50
2018-05-18T02:03:16.242Z,30.17
2018-05-18T02:05:44.083Z,39.13
2018-05-18T02:08:11.523Z,45.47
2018-05-18T02:10:40.137Z,52.30
2018-05-18T02:13:07.582Z,52.50
2018-05-18T02:15:35.031Z,49.13
2018-05-18T02:18:03.249Z,48.40
2018-05-18T02:20:30.697Z,41.67
2018-05-18T02:22:59.105Z,41.60
2018-05-18T02:25:26.579Z,43.00
2018-05-18T02:27:54.023Z,33.63
2018-05-18T02:30:21.493Z,29.10
2018-05-18T02:32:49.027Z,31.43
2018-05-18T02:35:16.477Z,26.63
2018-05-18T02:37:43.924Z,31.47
2018-05-18T02:40:11.395Z,27.03
2018-05-18T02:42:38.851Z,26.33
2018-05-18T02:45:06.309Z,26.50
2018-05-18T02:47:33.762Z,28.87
2018-05-18T02:50:01.217Z,28.80
2018-05-18T02:52:29.500Z,26.20
2018-05-18T02:54:56.960Z,25.83
2018-05-18T02:57:25.188Z,20.87
2018-05-18T02:59:52.676Z,20.17
2018-05-18T03:02:20.157Z,22.97
2018-05-18T03:04:48.427Z,24.20
2018-05-18T03:07:15.897Z,23.60
2018-05-18T03:09:43.337Z,24.07
2018-05-18T03:12:10.791Z,23.60
2018-05-18T03:14:38.253Z,24.93
2018-05-18T03:17:05.746Z,33.27
2018-05-18T03:19:33.972Z,29.30
2018-05-18T03:22:01.504Z,32.03
2018-05-18T03:24:28.874Z,27.97
2018-05-18T03:26:56.344Z,25.43
2018-05-18T03:29:23.815Z,39.73
2018-05-18T03:31:51.266Z,25.70
2018-05-18T03:34:18.713Z,36.70
2018-05-18T03:36:46.186Z,37.37
2018-05-18T03:39:13.633Z,43.47
2018-05-18T03:41:41.087Z,28.47
2018-05-18T03:44:08.539Z,35.40
2018-05-18T03:46:35.990Z,22.43
2018-05-18T03:49:04.256Z,22.50
2018-05-18T03:51:31.734Z,21.07
2018-05-18T03:53:59.946Z,19.10
2018-05-18T03:56:27.413Z,19.30
2018-05-18T03:58:54.864Z,20.07
2018-05-18T04:01:34.162Z,20.17
2018-05-18T04:04:14.217Z,19.67
2018-05-18T04:06:54.276Z,19.43
2018-05-18T04:09:22.528Z,19.23
2018-05-18T04:11:50.059Z,20.10
2018-05-18T04:14:17.453Z,18.60
2018-05-18T04:16:44.896Z,20.70
2018-05-18T04:19:12.346Z,21.60
2018-05-18T04:21:39.802Z,22.83
2018-05-18T04:24:07.265Z,18.93
2018-05-18T04:26:34.713Z,18.80
2018-05-18T04:29:02.226Z,19.17
2018-05-18T04:31:29.673Z,17.20
2018-05-18T04:33:57.116Z,17.27
2018-05-18T04:36:24.664Z,15.27
2018-05-18T04:38:52.116Z,15.63
2018-05-18T04:41:19.573Z,15.07
2018-05-18T04:43:47.049Z,13.87
2018-05-18T04:46:14.518Z,14.77
2018-05-18T04:48:42.010Z,14.37
2018-05-18T04:51:09.465Z,16.30
2018-05-18T04:53:36.915Z,14.50
2018-05-18T04:56:04.384Z,13.97
2018-05-18T04:58:32.709Z,15.93
2018-05-18T05:01:00.207Z,16.60
2018-05-18T05:03:27.645Z,18.57
2018-05-18T05:05:55.096Z,19.53
2018-05-18T05:08:22.573Z,22.33
2018-05-18T05:10:50.018Z,19.77
2018-05-18T05:13:17.485Z,22.07
2018-05-18T05:15:44.936Z,21.53
2018-05-18T05:18:12.380Z,20.17
2018-05-18T05:20:40.615Z,19.07
2018-05-18T05:23:08.058Z,25.07
2018-05-18T05:25:35.505Z,17.30
2018-05-18T05:28:02.955Z,16.83
2018-05-18T05:30:30.585Z,23.87
2018-05-18T05:32:57.982Z,13.37
2018-05-18T05:35:25.479Z,12.33
2018-05-18T05:37:53.688Z,15.13
2018-05-18T05:40:21.149Z,16.37
2018-05-18T05:42:48.618Z,17.87
2018-05-18T05:45:16.074Z,17.63
2018-05-18T05:47:44.009Z,18.00
2018-05-18T05:50:11.566Z,16.10
2018-05-18T05:52:39.021Z,16.60
2018-05-18T05:55:06.901Z,16.83
2018-05-18T05:57:34.346Z,16.60
2018-05-18T06:00:01.802Z,17.80
2018-05-18T06:02:29.278Z,16.90
2018-05-18T06:04:56.735Z,16.33
2018-05-18T06:07:24.621Z,17.40
2018-05-18T06:09:52.390Z,16.80
2018-05-18T06:12:19.917Z,17.20
2018-05-18T06:14:47.360Z,16.77
2018-05-18T06:17:15.584Z,17.03
2018-05-18T06:19:43.026Z,17.67
2018-05-18T06:22:10.484Z,15.90
2018-05-18T06:24:37.944Z,15.27
2018-05-18T06:27:05.401Z,16.67
2018-05-18T06:29:32.863Z,15.40
2018-05-18T06:32:00.321Z,16.20
2018-05-18T06:34:27.780Z,15.40
2018-05-18T06:36:55.236Z,15.47
2018-05-18T06:39:23.674Z,16.03
2018-05-18T06:41:51.145Z,15.83
2018-05-18T06:44:18.618Z,14.43
2018-05-18T06:46:46.926Z,15.07
2018-05-18T06:49:14.341Z,15.73
2018-05-18T06:51:41.808Z,16.47
2018-05-18T06:54:09.272Z,16.17
2018-05-18T06:56:37.493Z,16.90
2018-05-18T06:59:04.969Z,16.10
2018-05-18T07:01:32.437Z,16.20
2018-05-18T07:03:59.966Z,17.13
2018-05-18T07:06:27.549Z,17.13
2018-05-18T07:08:55.058Z,17.57
2018-05-18T07:11:22.507Z,16.57
2018-05-18T07:13:50.103Z,16.20
2018-05-18T07:16:18.363Z,17.03
2018-05-18T07:18:45.825Z,17.37
2018-05-18T07:21:13.488Z,17.00
2018-05-18T07:23:40.945Z,18.37
2018-05-18T07:26:08.406Z,17.10
2018-05-18T07:28:36.154Z,17.70
2018-05-18T07:31:03.603Z,17.30
2018-05-18T07:33:31.117Z,17.70
2018-05-18T07:35:59.747Z,17.53
2018-05-18T07:38:27.197Z,16.93
2018-05-18T07:40:54.649Z,17.87
2018-05-18T07:43:22.114Z,17.13
2018-05-18T07:45:49.566Z,15.83
2018-05-18T07:48:17.020Z,15.80
2018-05-18T07:50:45.294Z,16.23
2018-05-18T07:53:13.504Z,16.57
2018-05-18T07:55:40.968Z,15.67
2018-05-18T07:58:08.417Z,18.50
2018-05-18T08:00:35.879Z,16.67
2018-05-18T08:03:03.331Z,21.10
2018-05-18T08:05:30.940Z,18.60
2018-05-18T08:07:58.385Z,21.00
2018-05-18T08:10:25.837Z,24.70
2018-05-18T08:12:53.297Z,22.80
2018-05-18T08:15:20.744Z,24.43
2018-05-18T08:17:49.066Z,21.33
2018-05-18T08:20:16.517Z,19.80
2018-05-18T08:22:43.980Z,20.73
2018-05-18T08:25:11.459Z,17.83
2018-05-18T08:27:38.964Z,18.23
2018-05-18T08:30:06.419Z,19.47
2018-05-18T08:32:33.948Z,21.10
2018-05-18T08:35:01.412Z,19.10
2018-05-18T08:37:29.641Z,18.20
2018-05-18T08:39:57.252Z,20.20
2018-05-18T08:42:24.707Z,19.47
2018-05-18T08:44:52.149Z,20.83
2018-05-18T08:47:19.594Z,22.83
2018-05-18T08:49:47.051Z,20.00
2018-05-18T08:52:14.497Z,21.57
2018-05-18T08:54:41.957Z,21.63
2018-05-18T08:57:09.408Z,20.53
2018-05-18T08:59:36.855Z,21.03
2018-05-18T09:02:04.301Z,19.10
2018-05-18T09:04:32.669Z,18.60
2018-05-18T09:07:00.124Z,22.43
2018-05-18T09:09:27.581Z,17.23
2018-05-18T09:11:55.032Z,22.40
2018-05-18T09:14:22.481Z,18.17
2018-05-18T09:16:49.944Z,22.27
2018-05-18T09:19:17.402Z,23.23
2018-05-18T09:21:45.077Z,18.47
2018-05-18T09:24:12.525Z,19.33
2018-05-18T09:26:40.006Z,23.57
2018-05-18T09:31:52.736Z,21.80
2018-05-18T09:34:20.235Z,21.73
2018-05-18T09:36:47.648Z,23.37
2018-05-18T09:39:15.095Z,20.13
2018-05-18T09:41:42.557Z,22.73
2018-05-18T09:44:10.035Z,23.27
2018-05-18T09:46:37.513Z,21.77
2018-05-18T09:49:05.020Z,17.03
2018-05-18T09:51:33.237Z,19.73
2018-05-18T09:54:00.694Z,19.37
2018-05-18T09:56:28.141Z,19.63
2018-05-18T09:58:55.584Z,23.40
2018-05-18T10:01:23.046Z,18.73
2018-05-18T10:03:50.497Z,18.67
2018-05-18T10:06:18.128Z,20.67
2018-05-18T10:08:45.578Z,21.07
2018-05-18T10:11:13.635Z,16.77
2018-05-18T10:13:41.220Z,14.13
2018-05-18T10:16:11.807Z,20.80
2018-05-18T10:18:39.257Z,15.80
2018-05-18T10:21:06.648Z,20.47
2018-05-18T10:23:34.124Z,17.60
2018-05-18T10:26:01.576Z,24.27
2018-05-18T10:28:29.047Z,19.90
2018-05-18T10:30:56.497Z,14.83
2018-05-18T10:33:23.998Z,19.00
2018-05-18T10:35:51.593Z,18.05
2018-05-18T10:38:19.353Z,22.25
2018-05-18T10:40:47.856Z,22.03
2018-05-18T10:43:15.395Z,18.92
2018-05-18T10:45:43.761Z,19.85
2018-05-18T10:48:11.349Z,18.77
2018-05-18T10:50:39.099Z,21.10
2018-05-18T10:53:06.905Z,19.30
2018-05-18T10:55:34.600Z,20.52
2018-05-18T10:58:02.069Z,18.50
2018-05-18T11:00:29.549Z,15.52
2018-05-18T11:02:57.793Z,18.10
2018-05-18T11:05:25.317Z,16.80
2018-05-18T11:07:52.718Z,20.92
2018-05-18T11:10:20.168Z,19.52
2018-05-18T11:12:47.649Z,18.60
2018-05-18T11:15:15.097Z,19.83
2018-05-18T11:17:42.563Z,19.73
2018-05-18T11:20:10.228Z,23.30
2018-05-18T11:22:38.265Z,13.15
2018-05-18T11:25:05.732Z,13.77
2018-05-18T11:27:33.181Z,18.25
2018-05-18T11:30:00.640Z,16.87
2018-05-18T11:32:28.393Z,15.63
2018-05-18T11:34:56.589Z,12.70
2018-05-18T11:37:24.029Z,18.30
2018-05-18T11:39:51.524Z,14.45
2018-05-18T11:42:18.964Z,21.55
2018-05-18T11:44:46.482Z,14.98
2018-05-18T11:47:13.946Z,16.92
2018-05-18T11:49:41.436Z,17.90
2018-05-18T11:52:09.930Z,15.80
2018-05-18T11:54:37.396Z,18.63
2018-05-18T11:57:04.814Z,16.33
2018-05-18T11:59:32.274Z,19.20
2018-05-18T12:01:59.718Z,14.97
2018-05-18T12:04:27.176Z,17.17
2018-05-18T12:06:54.632Z,18.50
2018-05-18T12:09:22.128Z,20.70
2018-05-18T12:11:49.575Z,19.65
2018-05-18T12:14:18.235Z,17.48
2018-05-18T12:16:46.554Z,15.77
2018-05-18T12:19:13.964Z,16.30
2018-05-18T12:21:41.433Z,19.77
2018-05-18T12:24:08.917Z,15.27
2018-05-18T12:26:36.423Z,16.73
2018-05-18T12:29:03.882Z,20.37
2018-05-18T12:31:32.348Z,16.60
2018-05-18T12:33:59.771Z,17.57
2018-05-18T12:36:27.232Z,17.57
2018-05-18T12:38:54.671Z,22.27
2018-05-18T12:41:22.135Z,21.43
2018-05-18T12:43:49.614Z,20.13
2018-05-18T12:46:17.058Z,19.30
2018-05-18T12:48:44.526Z,17.07
2018-05-18T12:51:12.030Z,24.13
2018-05-18T12:53:40.249Z,20.40
2018-05-18T12:56:07.713Z,19.37
2018-05-18T12:58:35.171Z,20.33
2018-05-18T13:01:02.655Z,23.73
2018-05-18T13:03:30.127Z,18.92
2018-05-18T13:05:58.316Z,19.58
2018-05-18T13:08:25.762Z,18.42
2018-05-18T13:10:53.222Z,17.85
2018-05-18T13:13:20.719Z,21.83
2018-05-18T13:15:54.685Z,18.12
2018-05-18T13:18:22.068Z,20.40
2018-05-18T13:20:49.520Z,16.42
2018-05-18T13:23:16.978Z,19.27
2018-05-18T13:25:44.940Z,18.87
2018-05-18T13:28:12.404Z,20.35
2018-05-18T13:30:40.020Z,19.25
2018-05-18T13:33:07.440Z,17.15
2018-05-18T13:35:34.919Z,20.62
2018-05-18T13:38:02.404Z,21.87
2018-05-18T13:40:30.604Z,24.17
2018-05-18T13:42:58.061Z,18.85
2018-05-18T13:45:25.678Z,21.77
2018-05-18T13:47:53.126Z,18.87
2018-05-18T13:50:20.573Z,19.25
2018-05-18T13:52:48.045Z,20.90
2018-05-18T13:55:15.483Z,21.77
2018-05-18T13:57:42.928Z,17.50
2018-05-18T14:00:10.385Z,18.17
2018-05-18T14:02:38.425Z,18.08
2018-05-18T14:05:06.177Z,21.35
2018-05-18T14:07:33.636Z,17.23
2018-05-18T14:10:01.096Z,19.92
2018-05-18T14:12:29.358Z,18.80
2018-05-18T14:14:56.807Z,19.30
2018-05-18T14:17:24.266Z,18.85
2018-05-18T14:19:51.709Z,14.68
2018-05-18T14:22:19.188Z,15.63
2018-05-18T14:24:47.058Z,18.10
2018-05-18T14:27:14.537Z,18.20
2018-05-18T14:29:41.988Z,21.35
2018-05-18T14:32:10.212Z,21.30
2018-05-18T14:34:37.892Z,17.67
2018-05-18T14:37:06.109Z,18.50
2018-05-18T14:39:33.557Z,17.08
2018-05-18T14:42:01.041Z,16.17
2018-05-18T14:44:28.494Z,16.87
2018-05-18T14:46:55.956Z,19.17
2018-05-18T14:49:23.409Z,19.98
2018-05-18T14:51:51.485Z,17.33
2018-05-18T14:54:18.933Z,16.75
2018-05-18T14:56:46.386Z,13.15
2018-05-18T14:59:13.866Z,14.80
2018-05-18T15:01:41.424Z,15.68
2018-05-18T15:04:09.247Z,11.95
2018-05-18T15:06:37.041Z,11.93
2018-05-18T15:09:05.180Z,16.35
2018-05-18T15:11:32.624Z,13.98
2018-05-18T15:14:00.076Z,18.52
2018-05-18T15:16:27.775Z,19.02
2018-05-18T15:18:55.897Z,16.50
2018-05-18T15:21:23.482Z,14.85
2018-05-18T15:23:51.181Z,14.00
2018-05-18T15:26:18.677Z,13.75
2018-05-18T15:28:46.223Z,12.93
2018-05-18T15:31:13.645Z,14.93
2018-05-18T15:33:41.087Z,14.77
2018-05-18T15:36:08.540Z,12.82
2018-05-18T15:38:36.017Z,15.43
2018-05-18T15:41:03.453Z,12.60
2018-05-18T15:43:30.926Z,14.18
2018-05-18T15:45:58.373Z,15.02
2018-05-18T15:48:25.861Z,12.80
2018-05-18T15:50:53.321Z,11.93
2018-05-18T15:53:20.776Z,13.80
2018-05-18T15:55:48.249Z,14.32
2018-05-18T15:58:15.706Z,14.18
2018-05-18T16:00:43.161Z,14.77
2018-05-18T16:03:10.654Z,14.40
2018-05-18T16:05:38.909Z,14.68
2018-05-18T16:08:06.359Z,11.88
2018-05-18T16:10:33.812Z,12.95
2018-05-18T16:13:03.546Z,13.73
2018-05-18T16:15:31.054Z,15.30
2018-05-18T16:17:58.504Z,13.88
2018-05-18T16:20:27.114Z,15.38
2018-05-18T16:22:54.553Z,14.70
2018-05-18T16:25:22.012Z,20.17
2018-05-18T16:27:50.327Z,16.17
2018-05-18T16:30:17.721Z,11.50
2018-05-18T16:32:45.168Z,15.23
2018-05-18T16:35:12.825Z,11.80
2018-05-18T16:37:40.353Z,14.33
2018-05-18T16:40:08.659Z,15.50
2018-05-18T16:42:36.004Z,11.90
2018-05-18T16:45:03.476Z,16.97
2018-05-18T16:47:30.924Z,15.23
2018-05-18T16:49:58.486Z,13.43
2018-05-18T16:52:25.959Z,15.53
2018-05-18T16:54:53.404Z,18.20
2018-05-18T16:57:20.865Z,12.47
2018-05-18T16:59:48.324Z,15.23
2018-05-18T17:02:15.768Z,12.20
2018-05-18T17:04:43.206Z,17.27
2018-05-18T17:07:10.653Z,17.67
2018-05-18T17:09:38.095Z,12.60
2018-05-18T17:12:05.546Z,17.60
2018-05-18T17:14:33.003Z,15.20
2018-05-18T17:17:00.482Z,13.00
2018-05-18T17:19:28.106Z,19.10
2018-05-18T17:21:55.732Z,17.67
2018-05-18T17:24:23.216Z,15.33
2018-05-18T17:26:50.724Z,19.07
2018-05-18T17:29:18.698Z,16.87
2018-05-18T17:31:46.197Z,15.20
2018-05-18T17:34:13.652Z,18.37
2018-05-18T17:36:41.271Z,14.63
2018-05-18T17:39:08.861Z,16.67
2018-05-18T17:41:36.317Z,19.67
2018-05-18T17:44:04.584Z,16.97
2018-05-18T17:46:32.046Z,14.63
2018-05-18T17:48:59.661Z,15.27
2018-05-18T17:51:27.065Z,12.60
2018-05-18T17:53:54.517Z,19.90
2018-05-18T17:56:21.983Z,14.67
2018-05-18T17:58:49.431Z,15.00
2018-05-18T18:01:17.366Z,16.43
2018-05-18T18:03:44.828Z,13.90
2018-05-18T18:06:12.320Z,15.20
2018-05-18T18:08:39.793Z,15.83
2018-05-18T18:11:07.244Z,16.00
2018-05-18T18:13:34.744Z,17.87
2018-05-18T18:16:02.409Z,17.83
2018-05-18T18:18:29.889Z,18.27
2018-05-18T18:20:57.344Z,12.80
2018-05-18T18:23:24.865Z,16.60
2018-05-18T18:25:52.429Z,13.87
2018-05-18T18:28:20.013Z,14.40
2018-05-18T18:30:47.430Z,15.33
2018-05-18T18:33:14.896Z,12.37
2018-05-18T18:35:42.461Z,19.13
2018-05-18T18:38:09.910Z,21.90
2018-05-18T18:40:38.447Z,17.90
2018-05-18T18:43:05.907Z,19.63
2018-05-18T18:45:33.435Z,17.30
2018-05-18T18:48:00.912Z,16.50
2018-05-18T18:50:28.370Z,15.03
2018-05-18T18:52:55.806Z,16.87
2018-05-18T18:55:24.068Z,16.97
2018-05-18T18:57:51.542Z,17.20
2018-05-18T19:00:19.756Z,12.30
2018-05-18T19:02:47.204Z,17.83
2018-05-18T19:05:14.681Z,12.43
2018-05-18T19:07:42.460Z,14.60
2018-05-18T19:10:09.901Z,14.83
2018-05-18T19:12:37.363Z,26.27
2018-05-18T19:15:05.098Z,31.33
2018-05-18T19:17:32.552Z,21.97
2018-05-18T19:20:00.094Z,18.33
2018-05-18T19:22:27.641Z,18.57
2018-05-18T19:24:55.164Z,15.10
2018-05-18T19:27:22.617Z,14.63
2018-05-18T19:29:50.152Z,18.37
2018-05-18T19:32:17.539Z,28.30
2018-05-18T19:34:45.015Z,25.67
2018-05-18T19:37:12.665Z,29.07
2018-05-18T19:39:40.268Z,24.83
2018-05-18T19:42:07.707Z,21.37
2018-05-18T19:44:35.171Z,20.97
2018-05-18T19:47:03.453Z,25.93
2018-05-18T19:49:30.997Z,21.03
2018-05-18T19:51:58.472Z,22.07
2018-05-18T19:54:25.961Z,17.57
2018-05-18T19:56:53.420Z,16.40
2018-05-18T19:59:20.884Z,19.57
2018-05-18T20:01:48.328Z,17.50
2018-05-18T20:04:16.534Z,15.80
2018-05-18T20:06:43.984Z,14.23
2018-05-18T20:09:11.421Z,15.20
2018-05-18T20:11:38.948Z,17.57
2018-05-18T20:14:06.462Z,13.33
2018-05-18T20:16:33.980Z,15.60
2018-05-18T20:19:01.507Z,14.50
2018-05-18T20:21:28.981Z,15.53
2018-05-18T20:23:57.343Z,16.03
2018-05-18T20:26:24.789Z,20.23
2018-05-18T20:28:52.231Z,15.53
2018-05-18T20:31:19.707Z,17.90
2018-05-18T20:33:47.945Z,16.63
2018-05-18T20:36:15.405Z,15.47
2018-05-18T20:38:42.853Z,16.17
2018-05-18T20:41:11.103Z,17.73
2018-05-18T20:43:38.558Z,16.93
2018-05-18T20:46:06.073Z,15.20
2018-05-18T20:48:33.533Z,15.90
2018-05-18T20:51:00.977Z,21.20
2018-05-18T20:53:29.211Z,17.53
2018-05-18T20:55:57.057Z,15.97
2018-05-18T20:58:24.508Z,22.50
2018-05-18T21:00:51.948Z,17.03
2018-05-18T21:03:20.170Z,20.70
2018-05-18T21:05:47.616Z,21.60
2018-05-18T21:08:15.082Z,15.07
2018-05-18T21:10:42.589Z,16.50
2018-05-18T21:13:10.002Z,16.07
2018-05-18T21:15:37.454Z,15.97
2018-05-18T21:18:04.911Z,17.07
2018-05-18T21:20:32.359Z,18.87
2018-05-18T21:22:59.818Z,15.37
2018-05-18T21:25:28.037Z,18.53
2018-05-18T21:27:55.513Z,23.33
2018-05-18T21:30:23.001Z,18.63
2018-05-18T21:32:50.452Z,18.67
2018-05-18T21:35:17.909Z,21.93
2018-05-18T21:37:45.356Z,21.17
2018-05-18T21:40:12.817Z,18.37
2018-05-18T21:42:40.313Z,18.30
2018-05-18T21:45:08.529Z,19.93
2018-05-18T21:47:35.989Z,19.00
2018-05-18T21:50:03.670Z,24.80
2018-05-18T21:52:31.116Z,21.27
2018-05-18T21:54:58.565Z,20.63
2018-05-18T21:57:26.017Z,20.73
2018-05-18T21:59:53.468Z,23.87
2018-05-18T22:02:20.914Z,23.53
2018-05-18T22:04:49.142Z,25.63
2018-05-18T22:07:17.072Z,26.63
2018-05-18T22:09:44.784Z,26.03
2018-05-18T22:12:12.254Z,26.00
2018-05-18T22:14:39.683Z,25.73
2018-05-18T22:17:07.141Z,29.43
2018-05-18T22:19:34.612Z,25.53
2018-05-18T22:22:02.047Z,24.93
2018-05-18T22:24:29.502Z,22.60
2018-05-18T22:26:57.741Z,45.40
2018-05-18T22:29:25.206Z,32.40
2018-05-18T22:31:52.652Z,28.83
2018-05-18T22:34:20.099Z,26.30
2018-05-18T22:36:47.555Z,26.43
2018-05-18T22:39:15.017Z,33.73
2018-05-18T22:41:42.465Z,31.40
2018-05-18T22:44:09.926Z,34.83
2018-05-18T22:46:37.505Z,37.80
2018-05-18T22:49:04.948Z,27.13
2018-05-18T22:51:32.396Z,24.20
2018-05-18T22:53:59.856Z,24.60
2018-05-18T22:56:27.300Z,25.23
2018-05-18T22:58:55.529Z,23.13
2018-05-18T23:01:22.983Z,25.40
2018-05-18T23:03:50.432Z,23.80
2018-05-18T23:06:18.050Z,23.43
2018-05-18T23:08:45.489Z,22.27
2018-05-18T23:11:12.965Z,21.90
2018-05-18T23:13:40.424Z,23.47
2018-05-18T23:16:07.882Z,23.93
2018-05-18T23:18:35.629Z,20.40
2018-05-18T23:21:03.072Z,23.80
2018-05-18T23:23:30.500Z,26.93
2018-05-18T23:25:58.737Z,22.47
2018-05-18T23:28:26.192Z,24.93
2018-05-18T23:30:54.404Z,21.90
2018-05-18T23:33:22.615Z,18.53
2018-05-18T23:35:50.176Z,24.37
2018-05-18T23:38:17.627Z,25.97
2018-05-18T23:40:45.073Z,23.57
2018-05-18T23:43:13.286Z,20.77
2018-05-18T23:45:40.760Z,22.30
2018-05-18T23:48:08.221Z,23.83
2018-05-18T23:50:35.685Z,25.50
2018-05-18T23:53:03.145Z,23.70
2018-05-18T23:55:30.596Z,26.00
2018-05-18T23:57:58.184Z,22.93
